Fort Knox, Kentucky
Current Conditions -  °F | °C
As of 11:17 PM on Sunday 21 Dec 2014 (Local Time) from KFTK Reporting Station
Overcast Overcast  
Wind Chill: 26°   Ceiling: 4400
Heat Index: 32°   Visibility: 10mi
Dew Point: 28°   Wind: 6mph
Humidity: 87%   Direction: 50°NE
Pressure: 30.04"   Gusts: NA
Location:  37.88°N, 85.96°W
Report Text: KFTK 220417Z AUTO 05005KT 10SM OVC044 00/M02 A3004 RMK AO2 PRESFR
Loading
Personal Weather Stations






























Interactive Weather Map New forecast layout! Learn more

10-Day Weather Forecast

Advertisements
Track Severe Weather on mobile